createdAt,value
2019-02-02T00:00:47.198Z,19.90
2019-02-02T00:02:24.546Z,19.00
2019-02-02T00:03:49.394Z,18.42
2019-02-02T00:05:01.565Z,20.55
2019-02-02T00:06:08.412Z,19.90
2019-02-02T00:07:15.261Z,20.17
2019-02-02T00:08:32.884Z,20.25
2019-02-02T00:10:04.261Z,19.98
2019-02-02T00:11:10.885Z,19.02
2019-02-02T00:12:20.284Z,19.00
2019-02-02T00:13:27.238Z,19.73
2019-02-02T00:14:52.826Z,19.73
2019-02-02T00:16:14.973Z,20.37
2019-02-02T00:17:32.234Z,20.60
2019-02-02T00:18:39.207Z,18.67
2019-02-02T00:19:49.136Z,19.10
2019-02-02T00:20:55.987Z,20.10
2019-02-02T00:22:02.822Z,18.62
2019-02-02T00:23:10.925Z,20.17
2019-02-02T00:24:18.853Z,21.15
2019-02-02T00:25:28.682Z,21.50
2019-02-02T00:26:35.522Z,21.90
2019-02-02T00:27:42.292Z,20.43
2019-02-02T00:28:58.155Z,20.95
2019-02-02T00:30:20.011Z,21.15
2019-02-02T00:33:04.659Z,19.23
2019-02-02T00:34:11.495Z,20.88
2019-02-02T00:35:18.134Z,21.40
2019-02-02T00:36:37.175Z,18.55
2019-02-02T00:37:43.901Z,18.15
2019-02-02T00:39:08.718Z,24.32
2019-02-02T00:41:06.322Z,23.83
2019-02-02T00:43:26.272Z,21.15
2019-02-02T00:46:04.736Z,17.20
2019-02-02T00:47:17.231Z,18.52
2019-02-02T00:48:24.007Z,19.02
2019-02-02T00:49:39.569Z,24.30
2019-02-02T00:50:46.363Z,19.80
2019-02-02T00:51:53.091Z,20.82
2019-02-02T00:53:12.439Z,22.32
2019-02-02T00:54:22.296Z,20.02
2019-02-02T00:55:29.249Z,20.82
2019-02-02T00:56:36.071Z,19.25
2019-02-02T00:57:53.064Z,22.62
2019-02-02T00:58:54.484Z,20.23
2019-02-02T01:00:02.764Z,22.82
2019-02-02T01:01:36.479Z,20.95
2019-02-02T01:02:46.387Z,18.12
2019-02-02T01:03:57.663Z,21.17
2019-02-02T01:05:07.862Z,19.92
2019-02-02T01:06:17.835Z,19.07
2019-02-02T01:07:24.790Z,22.32
2019-02-02T01:08:55.323Z,28.25
2019-02-02T01:10:33.409Z,23.02
2019-02-02T01:12:03.860Z,29.05
2019-02-02T01:13:10.608Z,27.65
2019-02-02T01:14:26.387Z,27.62
2019-02-02T01:15:33.333Z,26.23
2019-02-02T01:17:33.755Z,35.38
2019-02-02T01:18:50.347Z,32.65
2019-02-02T01:20:00.668Z,20.32
2019-02-02T01:22:53.084Z,27.85
2019-02-02T01:23:59.827Z,26.15
2019-02-02T01:25:07.735Z,20.37
2019-02-02T01:26:14.442Z,24.95
2019-02-02T01:27:21.063Z,26.55
2019-02-02T01:28:42.733Z,26.60
2019-02-02T01:29:49.343Z,22.98
2019-02-02T01:31:05.363Z,20.30
2019-02-02T01:32:15.051Z,17.70
2019-02-02T01:33:28.016Z,15.35
2019-02-02T01:35:00.341Z,17.40
2019-02-02T01:36:07.001Z,16.35
2019-02-02T01:37:13.863Z,28.02
2019-02-02T01:38:23.731Z,19.17
2019-02-02T01:39:30.415Z,29.75
2019-02-02T01:40:42.938Z,31.70
2019-02-02T01:41:59.038Z,31.37
2019-02-02T01:43:13.059Z,27.70
2019-02-02T01:44:19.879Z,26.87
2019-02-02T01:45:26.893Z,27.35
2019-02-02T01:46:33.574Z,27.80
2019-02-02T01:47:40.337Z,22.05
2019-02-02T01:48:47.154Z,28.00
2019-02-02T01:49:53.982Z,29.85
2019-02-02T01:51:00.675Z,20.23
2019-02-02T01:52:13.466Z,23.50
2019-02-02T01:53:21.593Z,22.65
2019-02-02T01:54:28.446Z,20.57
2019-02-02T01:56:13.491Z,19.42
2019-02-02T01:57:19.284Z,18.55
2019-02-02T01:58:35.099Z,18.80
2019-02-02T01:59:41.866Z,15.63
2019-02-02T02:00:48.375Z,16.73
2019-02-02T02:02:10.203Z,15.13
2019-02-02T02:03:44.636Z,16.80
2019-02-02T02:06:31.021Z,14.58
2019-02-02T02:07:37.819Z,14.68
2019-02-02T02:09:08.818Z,14.87
2019-02-02T02:10:19.079Z,13.18
2019-02-02T02:11:25.774Z,13.75
2019-02-02T02:13:31.346Z,13.68
2019-02-02T02:14:43.863Z,15.08
2019-02-02T02:17:37.901Z,13.95
2019-02-02T02:18:44.643Z,12.58
2019-02-02T02:21:34.137Z,13.35
2019-02-02T02:22:46.890Z,13.18
2019-02-02T02:24:08.915Z,12.80
2019-02-02T02:25:22.027Z,12.85
2019-02-02T02:26:55.415Z,13.50
2019-02-02T02:28:02.117Z,12.75
2019-02-02T02:29:27.804Z,12.82
2019-02-02T02:30:22.194Z,12.37
2019-02-02T02:31:29.023Z,12.98
2019-02-02T02:33:12.960Z,12.73
2019-02-02T02:34:19.793Z,12.50
2019-02-02T02:35:26.569Z,12.55
2019-02-02T02:36:33.289Z,12.33
2019-02-02T02:37:55.344Z,12.65
2019-02-02T02:39:21.506Z,12.20
2019-02-02T02:40:46.291Z,12.75
2019-02-02T02:41:53.185Z,12.25
2019-02-02T02:43:14.874Z,12.15
2019-02-02T02:44:56.386Z,11.90
2019-02-02T02:48:39.653Z,10.95
2019-02-02T02:51:28.349Z,11.35
2019-02-02T02:53:25.557Z,12.33
2019-02-02T02:54:32.167Z,11.40
2019-02-02T02:55:38.951Z,11.65
2019-02-02T02:56:51.038Z,12.10
2019-02-02T02:57:57.699Z,11.10
2019-02-02T02:59:04.489Z,11.85
2019-02-02T03:00:21.661Z,11.25
2019-02-02T03:01:29.399Z,11.65
2019-02-02T03:02:38.273Z,11.65
2019-02-02T03:04:09.599Z,11.73
2019-02-02T03:06:11.741Z,11.22
2019-02-02T03:07:24.447Z,10.85
2019-02-02T03:08:30.984Z,11.10
2019-02-02T03:09:38.085Z,11.97
2019-02-02T03:10:44.797Z,11.38
2019-02-02T03:12:11.069Z,11.93
2019-02-02T03:13:17.855Z,11.00
2019-02-02T03:14:27.299Z,11.40
2019-02-02T03:15:35.343Z,11.43
2019-02-02T03:16:41.989Z,11.05
2019-02-02T03:17:49.157Z,12.23
2019-02-02T03:19:06.808Z,10.90
2019-02-02T03:20:15.285Z,10.98
2019-02-02T03:21:21.869Z,11.30
2019-02-02T03:23:06.626Z,10.80
2019-02-02T03:24:22.354Z,10.53
2019-02-02T03:27:49.130Z,11.30
2019-02-02T03:29:01.948Z,11.43
2019-02-02T03:30:10.964Z,10.30
2019-02-02T03:31:18.818Z,11.22
2019-02-02T03:32:25.305Z,10.78
2019-02-02T03:33:32.249Z,11.10
2019-02-02T03:34:59.404Z,10.68
2019-02-02T03:36:13.018Z,10.50
2019-02-02T03:37:19.857Z,10.53
2019-02-02T03:39:53.565Z,10.50
2019-02-02T03:41:20.842Z,11.30
2019-02-02T03:42:27.894Z,10.38
2019-02-02T03:45:30.744Z,11.12
2019-02-02T03:46:37.228Z,10.30
2019-02-02T03:48:39.391Z,11.40
2019-02-02T03:49:46.443Z,10.05
2019-02-02T03:50:53.023Z,10.80
2019-02-02T03:52:04.805Z,10.60
2019-02-02T03:53:11.562Z,11.30
2019-02-02T03:54:37.085Z,10.03
2019-02-02T03:56:00.385Z,10.35
2019-02-02T03:57:07.652Z,9.18
2019-02-02T03:58:14.255Z,10.63
2019-02-02T03:59:40.779Z,10.15
2019-02-02T04:01:02.191Z,10.38
2019-02-02T04:02:11.301Z,9.83
2019-02-02T04:03:36.836Z,10.43
2019-02-02T04:04:46.451Z,9.93
2019-02-02T04:05:53.120Z,10.05
2019-02-02T04:06:59.887Z,12.20
2019-02-02T04:08:22.949Z,10.80
2019-02-02T04:09:59.739Z,10.70
2019-02-02T04:11:08.516Z,10.28
2019-02-02T04:12:27.260Z,10.98
2019-02-02T04:13:33.984Z,11.28
2019-02-02T04:14:40.649Z,10.82
2019-02-02T04:15:48.706Z,9.88
2019-02-02T04:16:55.717Z,11.15
2019-02-02T04:18:20.465Z,10.30
2019-02-02T04:19:27.040Z,10.05
2019-02-02T04:20:39.487Z,10.48
2019-02-02T04:23:51.593Z,9.55
2019-02-02T04:24:58.364Z,8.98
2019-02-02T04:26:05.003Z,9.50
2019-02-02T04:28:53.985Z,9.58
2019-02-02T04:30:17.398Z,9.83
2019-02-02T04:32:11.417Z,9.88
2019-02-02T04:33:47.386Z,8.90
2019-02-02T04:34:54.362Z,9.58
2019-02-02T04:36:02.509Z,9.58
2019-02-02T04:37:09.419Z,10.72
2019-02-02T04:38:18.880Z,9.33
2019-02-02T04:39:48.927Z,10.30
2019-02-02T04:41:12.278Z,9.55
2019-02-02T04:42:27.797Z,9.60
2019-02-02T04:45:25.909Z,10.48
2019-02-02T04:47:25.728Z,9.58
2019-02-02T04:48:32.645Z,10.45
2019-02-02T04:49:51.639Z,10.60
2019-02-02T04:50:58.392Z,10.30
2019-02-02T04:52:08.161Z,10.23
2019-02-02T04:53:26.774Z,9.93
2019-02-02T04:54:46.654Z,10.08
2019-02-02T04:55:53.232Z,10.10
2019-02-02T04:57:36.099Z,9.90
2019-02-02T04:58:42.674Z,9.55
2019-02-02T04:59:49.407Z,9.58
2019-02-02T05:01:32.116Z,9.75
2019-02-02T05:02:47.634Z,9.95
2019-02-02T05:03:54.204Z,10.05
2019-02-02T05:06:43.202Z,10.40
2019-02-02T05:07:49.807Z,10.35
2019-02-02T05:12:33.106Z,9.75
2019-02-02T05:13:40.102Z,10.00
2019-02-02T05:15:05.598Z,10.05
2019-02-02T05:16:12.301Z,10.28
2019-02-02T05:17:18.964Z,9.68
2019-02-02T05:18:32.585Z,9.65
2019-02-02T05:19:39.132Z,9.50
2019-02-02T05:22:32.597Z,10.00
2019-02-02T05:23:39.071Z,10.35
2019-02-02T05:24:54.997Z,9.65
2019-02-02T05:26:03.164Z,8.78
2019-02-02T05:27:20.169Z,8.90
2019-02-02T05:30:58.025Z,9.28
2019-02-02T05:32:07.447Z,9.40
2019-02-02T05:33:16.352Z,8.93
2019-02-02T05:34:22.877Z,9.70
2019-02-02T05:35:30.673Z,9.58
2019-02-02T05:37:13.646Z,9.75
2019-02-02T05:38:42.984Z,9.13
2019-02-02T05:39:49.662Z,9.55
2019-02-02T05:40:58.673Z,9.30
2019-02-02T05:42:05.198Z,9.43
2019-02-02T05:43:11.785Z,9.55
2019-02-02T05:44:36.193Z,8.90
2019-02-02T05:45:44.432Z,9.35
2019-02-02T05:47:38.362Z,9.65
2019-02-02T05:48:47.648Z,9.53
2019-02-02T05:49:54.147Z,9.45
2019-02-02T05:52:37.826Z,9.93
2019-02-02T05:53:47.128Z,9.30
2019-02-02T05:55:06.766Z,9.60
2019-02-02T05:56:22.958Z,9.53
2019-02-02T05:57:30.587Z,9.85
2019-02-02T05:58:57.848Z,10.03
2019-02-02T06:00:05.122Z,9.55
2019-02-02T06:01:18.473Z,9.28
2019-02-02T06:02:51.824Z,10.60
2019-02-02T06:04:16.217Z,9.35
2019-02-02T06:05:34.756Z,9.30
2019-02-02T06:06:41.617Z,9.55
2019-02-02T06:08:14.862Z,9.48
2019-02-02T06:09:24.288Z,9.28
2019-02-02T06:10:49.425Z,8.80
2019-02-02T06:11:56.124Z,9.40
2019-02-02T06:13:50.621Z,10.05
2019-02-02T06:14:57.265Z,9.80
2019-02-02T06:16:07.996Z,9.35
2019-02-02T06:17:23.852Z,9.68
2019-02-02T06:18:32.589Z,10.03
2019-02-02T06:19:56.932Z,10.95
2019-02-02T06:21:06.581Z,10.40
2019-02-02T06:22:13.057Z,9.53
2019-02-02T06:23:22.307Z,9.60
2019-02-02T06:24:29.817Z,9.15
2019-02-02T06:25:38.838Z,9.83
2019-02-02T06:27:00.653Z,10.05
2019-02-02T06:28:07.196Z,10.00
2019-02-02T06:29:39.572Z,11.10
2019-02-02T06:30:46.203Z,8.60
2019-02-02T06:32:17.600Z,9.58
2019-02-02T06:33:24.363Z,9.48
2019-02-02T06:34:32.376Z,10.00
2019-02-02T06:35:38.927Z,9.53
2019-02-02T06:36:54.277Z,10.00
2019-02-02T06:38:24.992Z,9.33
2019-02-02T06:39:34.977Z,9.53
2019-02-02T06:41:04.722Z,9.10
2019-02-02T06:42:41.448Z,8.98
2019-02-02T06:43:48.173Z,9.43
2019-02-02T06:45:14.323Z,9.73
2019-02-02T06:46:43.035Z,9.48
2019-02-02T06:47:42.124Z,9.23
2019-02-02T06:48:52.169Z,9.58
2019-02-02T06:49:58.671Z,9.83
2019-02-02T06:52:50.986Z,9.83
2019-02-02T06:54:15.970Z,10.15
2019-02-02T06:55:34.885Z,10.28
2019-02-02T06:57:08.103Z,10.48
2019-02-02T06:58:20.827Z,9.55
2019-02-02T06:59:27.554Z,10.18
2019-02-02T07:00:38.051Z,9.60
2019-02-02T07:02:02.703Z,9.85
2019-02-02T07:03:18.540Z,10.28
2019-02-02T07:04:56.995Z,11.08
2019-02-02T07:07:10.960Z,9.83
2019-02-02T07:08:18.085Z,8.98
2019-02-02T07:09:24.677Z,10.08
2019-02-02T07:10:31.179Z,10.05
2019-02-02T07:11:46.827Z,10.40
2019-02-02T07:12:55.619Z,9.55
2019-02-02T07:14:21.594Z,9.95
2019-02-02T07:15:29.855Z,10.13
2019-02-02T07:17:12.513Z,9.78
2019-02-02T07:18:24.431Z,9.78
2019-02-02T07:19:32.094Z,9.80
2019-02-02T07:23:09.217Z,9.50
2019-02-02T07:24:18.036Z,9.70
2019-02-02T07:25:25.938Z,10.28
2019-02-02T07:26:47.150Z,8.95
2019-02-02T07:27:53.773Z,10.25
2019-02-02T07:29:09.558Z,10.15
2019-02-02T07:30:28.221Z,9.63
2019-02-02T07:31:33.072Z,9.30
2019-02-02T07:32:39.575Z,9.70
2019-02-02T07:35:57.330Z,9.63
2019-02-02T07:37:04.100Z,10.08
2019-02-02T07:38:13.564Z,10.78
2019-02-02T07:39:26.270Z,9.58
2019-02-02T07:42:39.009Z,9.25
2019-02-02T07:45:57.358Z,9.30
2019-02-02T07:47:04.194Z,9.38
2019-02-02T07:48:34.270Z,8.50
2019-02-02T07:49:37.093Z,8.93
2019-02-02T07:50:43.664Z,9.15
2019-02-02T07:52:00.835Z,8.90
2019-02-02T07:53:07.595Z,8.78
2019-02-02T07:54:41.277Z,8.93
2019-02-02T07:55:52.232Z,8.28
2019-02-02T07:58:23.152Z,9.75
2019-02-02T07:59:49.017Z,9.35
2019-02-02T08:02:55.995Z,9.28
2019-02-02T08:04:02.722Z,8.90
2019-02-02T08:05:14.108Z,10.25
2019-02-02T08:06:53.816Z,9.60
2019-02-02T08:08:17.019Z,9.43
2019-02-02T08:09:23.278Z,9.40
2019-02-02T08:10:48.489Z,9.78
2019-02-02T08:11:58.443Z,9.08
2019-02-02T08:13:59.860Z,9.58
2019-02-02T08:14:55.576Z,9.15
2019-02-02T08:16:02.280Z,9.23
2019-02-02T08:17:09.096Z,8.98
2019-02-02T08:18:54.459Z,9.33
2019-02-02T08:20:01.065Z,9.25
2019-02-02T08:21:27.342Z,9.53
2019-02-02T08:22:34.462Z,9.28
2019-02-02T08:24:04.986Z,8.73
2019-02-02T08:25:39.002Z,9.48
2019-02-02T08:26:48.661Z,9.33
2019-02-02T08:27:55.343Z,8.75
2019-02-02T08:31:19.928Z,8.58
2019-02-02T08:32:44.903Z,8.60
2019-02-02T08:33:52.140Z,7.97
2019-02-02T08:35:01.806Z,8.55
2019-02-02T08:36:08.498Z,8.75
2019-02-02T08:39:00.140Z,8.70
2019-02-02T08:40:08.547Z,9.08
2019-02-02T08:41:15.237Z,9.33
2019-02-02T08:42:40.038Z,9.45
2019-02-02T08:43:47.866Z,8.55
2019-02-02T08:45:01.748Z,9.25
2019-02-02T08:46:08.718Z,9.03
2019-02-02T08:47:35.375Z,9.10
2019-02-02T08:48:42.135Z,8.55
2019-02-02T08:49:48.815Z,7.80
2019-02-02T08:51:33.912Z,9.63
2019-02-02T08:54:22.832Z,8.20
2019-02-02T08:55:32.591Z,8.40
2019-02-02T08:56:39.465Z,8.28
2019-02-02T08:57:46.159Z,8.13
2019-02-02T08:58:52.770Z,8.23
2019-02-02T09:02:01.630Z,8.13
2019-02-02T09:03:08.252Z,7.90
2019-02-02T09:04:16.882Z,8.18
2019-02-02T09:05:23.767Z,8.30
2019-02-02T09:06:38.781Z,8.30
2019-02-02T09:07:51.194Z,8.20
2019-02-02T09:08:57.661Z,7.97
2019-02-02T09:10:31.034Z,8.75
2019-02-02T09:11:44.215Z,7.70
2019-02-02T09:12:52.701Z,8.18
2019-02-02T09:14:00.334Z,8.20
2019-02-02T09:15:30.127Z,8.18
2019-02-02T09:16:51.127Z,7.78
2019-02-02T09:17:59.867Z,8.33
2019-02-02T09:19:10.798Z,8.25
2019-02-02T09:20:41.747Z,8.00
2019-02-02T09:21:48.458Z,8.30
2019-02-02T09:23:06.623Z,8.80
2019-02-02T09:24:12.529Z,8.38
2019-02-02T09:25:20.666Z,9.08
2019-02-02T09:26:27.458Z,8.30
2019-02-02T09:27:35.724Z,8.78
2019-02-02T09:28:57.834Z,8.33
2019-02-02T09:30:15.470Z,8.48
2019-02-02T09:31:28.618Z,8.90
2019-02-02T09:35:07.425Z,7.53
2019-02-02T09:36:17.189Z,8.10
2019-02-02T09:37:33.186Z,7.65
2019-02-02T09:38:39.826Z,7.75
2019-02-02T09:39:46.528Z,9.03
2019-02-02T09:41:58.818Z,8.83
2019-02-02T09:43:05.574Z,10.48
2019-02-02T09:44:12.536Z,10.55
2019-02-02T09:45:20.093Z,11.70
2019-02-02T09:46:26.793Z,10.50
2019-02-02T09:47:33.518Z,10.90
2019-02-02T09:48:40.190Z,8.85
2019-02-02T09:50:02.078Z,8.38
2019-02-02T09:51:08.790Z,9.48
2019-02-02T09:52:56.917Z,9.45
2019-02-02T09:54:03.601Z,8.88
2019-02-02T09:55:24.402Z,10.38
2019-02-02T09:56:39.654Z,8.13
2019-02-02T09:57:50.173Z,8.35
2019-02-02T09:59:40.596Z,8.93
2019-02-02T10:01:27.438Z,9.10
2019-02-02T10:02:27.165Z,8.75
2019-02-02T10:03:39.965Z,9.00
2019-02-02T10:04:47.535Z,8.75
2019-02-02T10:06:07.396Z,9.33
2019-02-02T10:07:14.106Z,9.38
2019-02-02T10:08:20.875Z,8.43
2019-02-02T10:09:27.377Z,9.08
2019-02-02T10:10:36.100Z,8.38
2019-02-02T10:11:42.861Z,9.28
2019-02-02T10:12:50.509Z,8.65
2019-02-02T10:13:57.354Z,8.15
2019-02-02T10:15:06.198Z,9.00
2019-02-02T10:16:12.987Z,9.23
2019-02-02T10:18:55.505Z,9.05
2019-02-02T10:20:02.760Z,9.28
2019-02-02T10:21:12.665Z,8.95
2019-02-02T10:22:31.439Z,9.38
2019-02-02T10:23:38.095Z,8.30
2019-02-02T10:24:45.008Z,8.30
2019-02-02T10:26:03.745Z,8.90
2019-02-02T10:27:11.907Z,8.85
2019-02-02T10:28:18.566Z,9.93
2019-02-02T10:29:25.429Z,9.50
2019-02-02T10:30:36.829Z,9.75
2019-02-02T10:31:43.301Z,11.30
2019-02-02T10:32:55.681Z,9.75
2019-02-02T10:34:02.298Z,10.00
2019-02-02T10:35:33.428Z,10.90
2019-02-02T10:36:41.998Z,10.90
2019-02-02T10:37:48.504Z,10.28
2019-02-02T10:38:55.129Z,11.38
2019-02-02T10:40:01.705Z,10.30
2019-02-02T10:41:14.467Z,10.80
2019-02-02T10:42:26.393Z,11.05
2019-02-02T10:44:14.735Z,9.08
2019-02-02T10:45:21.301Z,9.45
2019-02-02T10:46:27.942Z,9.50
2019-02-02T10:47:34.489Z,8.58
2019-02-02T10:48:40.986Z,8.58
2019-02-02T10:49:47.603Z,9.73
2019-02-02T10:50:57.145Z,8.25
2019-02-02T10:52:03.705Z,8.60
2019-02-02T10:53:25.687Z,9.68
2019-02-02T10:54:51.031Z,9.98
2019-02-02T10:55:57.831Z,8.88
2019-02-02T10:57:06.505Z,9.78
2019-02-02T10:58:13.159Z,9.85
2019-02-02T10:59:19.819Z,9.25
2019-02-02T11:01:04.347Z,9.65
2019-02-02T11:02:13.783Z,9.10
2019-02-02T11:04:16.174Z,9.93
2019-02-02T11:05:35.006Z,8.58
2019-02-02T11:06:41.900Z,9.43
2019-02-02T11:07:48.469Z,8.83
2019-02-02T11:09:42.700Z,8.73
2019-02-02T11:10:49.510Z,8.70
2019-02-02T11:12:05.656Z,8.75
2019-02-02T11:13:12.351Z,8.88
2019-02-02T11:14:23.408Z,8.40
2019-02-02T11:15:30.167Z,8.50
2019-02-02T11:18:24.620Z,9.10
2019-02-02T11:20:00.381Z,7.90
2019-02-02T11:21:10.362Z,8.43
2019-02-02T11:22:18.002Z,9.30
2019-02-02T11:24:06.781Z,9.70
2019-02-02T11:25:16.558Z,8.03
2019-02-02T11:26:25.666Z,8.68
2019-02-02T11:27:34.803Z,9.33
2019-02-02T11:30:53.119Z,8.70
2019-02-02T11:32:07.764Z,9.13
2019-02-02T11:33:22.108Z,9.15
2019-02-02T11:34:31.779Z,9.30
2019-02-02T11:35:54.912Z,9.75
2019-02-02T11:37:15.740Z,8.85
2019-02-02T11:39:17.831Z,8.93
2019-02-02T11:40:32.668Z,8.73
2019-02-02T11:41:44.707Z,9.30
2019-02-02T11:46:23.209Z,9.58
2019-02-02T11:47:50.669Z,8.78
2019-02-02T11:48:59.636Z,8.78
2019-02-02T11:50:24.687Z,9.85
2019-02-02T11:51:36.295Z,9.30
2019-02-02T11:52:47.680Z,9.00
2019-02-02T11:56:01.413Z,9.15
2019-02-02T11:58:01.190Z,9.03
2019-02-02T11:59:10.819Z,9.50
2019-02-02T12:00:37.517Z,9.30
2019-02-02T12:01:46.426Z,10.55
2019-02-02T12:03:10.599Z,9.10
2019-02-02T12:04:18.846Z,9.13
2019-02-02T12:05:28.933Z,9.45
2019-02-02T12:06:45.212Z,9.83
2019-02-02T12:08:06.541Z,9.85
2019-02-02T12:09:23.942Z,10.13
2019-02-02T12:10:31.429Z,10.35
2019-02-02T12:11:50.295Z,9.98
2019-02-02T12:12:57.018Z,11.30
2019-02-02T12:14:03.664Z,10.60
2019-02-02T12:15:30.250Z,10.13
2019-02-02T12:18:32.885Z,8.80
2019-02-02T12:21:22.321Z,8.33
2019-02-02T12:22:29.083Z,8.45
2019-02-02T12:23:35.870Z,8.93
2019-02-02T12:25:06.806Z,8.90
2019-02-02T12:26:13.591Z,9.08
2019-02-02T12:27:20.768Z,8.55
2019-02-02T12:28:27.641Z,7.78
2019-02-02T12:29:34.429Z,8.13
2019-02-02T12:30:45.920Z,9.30
2019-02-02T12:32:37.263Z,8.75
2019-02-02T12:33:55.024Z,8.35
2019-02-02T12:35:04.520Z,8.43
2019-02-02T12:36:30.624Z,9.45
2019-02-02T12:37:37.595Z,8.58
2019-02-02T12:38:44.395Z,8.63
2019-02-02T12:40:20.266Z,8.95
2019-02-02T12:41:28.229Z,9.65
2019-02-02T12:42:34.977Z,9.03
2019-02-02T12:43:41.769Z,8.85
2019-02-02T12:45:14.099Z,8.58
2019-02-02T12:46:20.941Z,8.95
2019-02-02T12:49:29.074Z,9.80
2019-02-02T12:50:35.833Z,9.98
2019-02-02T12:52:03.175Z,10.13
2019-02-02T12:53:13.051Z,10.58
2019-02-02T12:54:39.123Z,10.05
2019-02-02T12:55:48.946Z,10.28
2019-02-02T12:57:06.237Z,9.55
2019-02-02T12:58:22.463Z,9.78
2019-02-02T12:59:30.749Z,10.65
2019-02-02T13:02:41.149Z,10.48
2019-02-02T13:03:48.044Z,10.45
2019-02-02T13:04:54.846Z,10.55
2019-02-02T13:06:14.384Z,11.57
2019-02-02T13:07:41.854Z,10.48
2019-02-02T13:08:50.070Z,10.38
2019-02-02T13:11:31.918Z,9.90
2019-02-02T13:11:36.466Z,9.43
2019-02-02T13:13:32.171Z,9.85
2019-02-02T13:14:49.812Z,9.73
2019-02-02T13:15:59.383Z,9.60
2019-02-02T13:17:06.569Z,9.18
2019-02-02T13:18:14.506Z,9.53
2019-02-02T13:19:22.950Z,9.80
2019-02-02T13:20:29.866Z,7.62
2019-02-02T13:21:36.910Z,9.90
2019-02-02T13:22:44.315Z,8.45
2019-02-02T13:23:58.661Z,9.00
2019-02-02T13:27:07.821Z,9.73
2019-02-02T13:28:39.801Z,9.18
2019-02-02T13:30:24.675Z,9.40
2019-02-02T13:35:33.357Z,8.38
2019-02-02T13:36:53.647Z,7.83
2019-02-02T13:39:48.311Z,7.72
2019-02-02T13:40:55.413Z,8.75
2019-02-02T13:42:20.874Z,8.93
2019-02-02T13:43:33.633Z,9.40
2019-02-02T13:44:40.735Z,8.43
2019-02-02T13:45:47.885Z,9.53
2019-02-02T13:47:03.049Z,8.03
2019-02-02T13:48:10.368Z,8.35
2019-02-02T13:51:00.290Z,8.83
2019-02-02T13:52:08.415Z,9.35
2019-02-02T13:53:16.919Z,8.40
2019-02-02T13:54:34.383Z,8.78
2019-02-02T13:55:41.376Z,8.85
2019-02-02T13:57:03.952Z,9.53
2019-02-02T13:58:12.171Z,9.53
2019-02-02T13:59:19.105Z,9.43
2019-02-02T14:00:28.611Z,9.08
2019-02-02T14:01:42.819Z,9.33
2019-02-02T14:03:01.617Z,9.23
2019-02-02T14:05:54.566Z,9.08
2019-02-02T14:07:03.083Z,9.20
2019-02-02T14:08:33.502Z,8.40
2019-02-02T14:09:46.507Z,9.03
2019-02-02T14:10:57.042Z,9.43
2019-02-02T14:12:19.032Z,8.80
2019-02-02T14:15:15.467Z,9.43
2019-02-02T14:16:28.962Z,9.03
2019-02-02T14:17:43.166Z,9.30
2019-02-02T14:19:14.033Z,9.40
2019-02-02T14:20:56.321Z,9.10
2019-02-02T14:22:11.368Z,9.13
2019-02-02T14:23:32.539Z,10.00
2019-02-02T14:25:02.110Z,9.30
2019-02-02T14:27:57.143Z,9.05
2019-02-02T14:29:08.703Z,9.68
2019-02-02T14:30:53.953Z,9.53
2019-02-02T14:32:01.617Z,8.75
2019-02-02T14:33:20.899Z,10.28
2019-02-02T14:34:39.623Z,9.78
2019-02-02T14:35:48.989Z,9.28
2019-02-02T14:36:57.432Z,9.85
2019-02-02T14:38:05.361Z,9.38
2019-02-02T14:39:49.127Z,9.53
2019-02-02T14:41:01.186Z,9.55
2019-02-02T14:42:28.777Z,9.25
2019-02-02T14:43:35.834Z,9.85
2019-02-02T14:44:48.747Z,9.58
2019-02-02T14:45:55.841Z,9.80
2019-02-02T14:47:31.000Z,9.30
2019-02-02T14:48:31.810Z,9.05
2019-02-02T14:49:48.111Z,9.43
2019-02-02T14:51:02.027Z,9.58
2019-02-02T14:52:11.775Z,8.80
2019-02-02T14:53:37.613Z,8.90
2019-02-02T14:54:47.555Z,9.43
2019-02-02T14:55:54.727Z,9.83
2019-02-02T14:57:02.040Z,9.10
2019-02-02T14:58:25.043Z,9.08
2019-02-02T14:59:32.129Z,9.60
2019-02-02T15:00:39.326Z,9.60
2019-02-02T15:01:49.347Z,9.55
2019-02-02T15:03:03.343Z,10.72
2019-02-02T15:04:10.906Z,10.35
2019-02-02T15:05:20.130Z,9.45
2019-02-02T15:06:27.426Z,10.38
2019-02-02T15:07:34.577Z,9.48
2019-02-02T15:09:00.157Z,10.30
2019-02-02T15:10:23.964Z,9.83
2019-02-02T15:11:49.866Z,10.10
2019-02-02T15:13:00.514Z,9.73
2019-02-02T15:14:07.852Z,10.20
2019-02-02T15:15:41.957Z,11.10
2019-02-02T15:16:55.191Z,10.00
2019-02-02T15:18:02.931Z,10.18
2019-02-02T15:19:10.993Z,11.10
2019-02-02T15:20:33.010Z,10.45
2019-02-02T15:21:46.026Z,10.23
2019-02-02T15:22:55.918Z,11.10
2019-02-02T15:24:05.745Z,10.28
2019-02-02T15:25:11.416Z,11.12
2019-02-02T15:26:18.431Z,10.58
2019-02-02T15:27:26.381Z,10.03
2019-02-02T15:28:34.481Z,10.00
2019-02-02T15:29:41.446Z,9.95
2019-02-02T15:32:28.030Z,10.05
2019-02-02T15:33:37.988Z,10.28
2019-02-02T15:34:42.433Z,10.40
2019-02-02T15:35:49.397Z,10.93
2019-02-02T15:36:56.489Z,10.93
2019-02-02T15:38:03.995Z,10.60
2019-02-02T15:39:12.013Z,10.48
2019-02-02T15:40:19.650Z,10.60
2019-02-02T15:41:26.845Z,10.18
2019-02-02T15:43:10.989Z,10.43
2019-02-02T15:44:27.197Z,10.10
2019-02-02T15:46:02.679Z,9.60
2019-02-02T15:47:41.665Z,9.55
2019-02-02T15:49:12.417Z,10.38
2019-02-02T15:50:19.672Z,9.98
2019-02-02T15:51:26.899Z,11.25
2019-02-02T15:52:34.010Z,10.58
2019-02-02T15:54:05.009Z,10.05
2019-02-02T15:55:15.030Z,10.10
2019-02-02T15:56:22.179Z,10.20
2019-02-02T15:57:42.761Z,10.75
2019-02-02T15:58:50.008Z,10.55
2019-02-02T15:59:59.987Z,11.10
2019-02-02T16:01:07.335Z,10.55
2019-02-02T16:02:14.768Z,10.10
2019-02-02T16:03:24.899Z,11.03
2019-02-02T16:04:32.023Z,11.10
2019-02-02T16:05:43.381Z,11.22
2019-02-02T16:06:50.459Z,10.13
2019-02-02T16:08:05.566Z,11.43
2019-02-02T16:09:14.556Z,10.38
2019-02-02T16:10:36.101Z,11.22
2019-02-02T16:11:43.340Z,10.90
2019-02-02T16:12:50.796Z,10.65
2019-02-02T16:13:57.856Z,16.32
2019-02-02T16:15:05.539Z,26.77
2019-02-02T16:16:12.630Z,12.00
2019-02-02T16:17:22.747Z,13.95
2019-02-02T16:18:29.767Z,14.93
2019-02-02T16:19:58.179Z,11.43
2019-02-02T16:23:02.395Z,12.63
2019-02-02T16:24:12.731Z,13.68
2019-02-02T16:25:25.910Z,12.43
2019-02-02T16:26:33.132Z,11.95
2019-02-02T16:27:57.696Z,10.60
2019-02-02T16:29:20.415Z,11.63
2019-02-02T16:30:28.995Z,10.65
2019-02-02T16:31:36.308Z,12.05
2019-02-02T16:32:47.020Z,12.13
2019-02-02T16:34:02.069Z,11.12
2019-02-02T16:35:03.811Z,11.05
2019-02-02T16:36:16.934Z,10.48
2019-02-02T16:39:59.572Z,11.18
2019-02-02T16:41:24.676Z,10.55
2019-02-02T16:42:53.563Z,12.03
2019-02-02T16:45:39.186Z,10.90
2019-02-02T16:48:35.258Z,11.57
2019-02-02T16:50:24.748Z,10.78
2019-02-02T16:51:33.942Z,11.38
2019-02-02T16:53:11.844Z,10.65
2019-02-02T16:54:42.770Z,10.88
2019-02-02T16:56:08.758Z,9.83
2019-02-02T16:57:18.771Z,11.15
2019-02-02T16:58:45.391Z,10.48
2019-02-02T17:00:22.302Z,10.98
2019-02-02T17:01:29.364Z,11.45
2019-02-02T17:06:52.207Z,10.50
2019-02-02T17:08:41.605Z,10.72
2019-02-02T17:09:57.885Z,12.55
2019-02-02T17:11:11.443Z,11.35
2019-02-02T17:18:02.918Z,15.80
2019-02-02T17:19:13.110Z,15.45
2019-02-02T17:20:42.095Z,14.25
2019-02-02T17:21:49.233Z,15.20
2019-02-02T17:23:15.286Z,14.80
2019-02-02T17:24:42.088Z,14.95
2019-02-02T17:25:58.382Z,14.47
2019-02-02T17:27:08.504Z,15.32
2019-02-02T17:29:04.058Z,15.25
2019-02-02T17:31:56.656Z,13.72
2019-02-02T17:33:26.567Z,19.85
2019-02-02T17:34:33.555Z,53.85
2019-02-02T17:35:50.927Z,18.48
2019-02-02T17:37:01.669Z,23.18
2019-02-02T17:38:36.664Z,26.68
2019-02-02T17:40:02.365Z,20.60
2019-02-02T17:41:12.125Z,16.02
2019-02-02T17:44:44.747Z,18.73
2019-02-02T17:46:09.493Z,12.78
2019-02-02T17:47:16.643Z,14.38
2019-02-02T17:48:23.646Z,14.80
2019-02-02T17:49:36.220Z,20.02
2019-02-02T17:51:06.502Z,17.32
2019-02-02T17:52:18.806Z,14.28
2019-02-02T17:53:27.699Z,21.73
2019-02-02T17:56:18.342Z,14.93
2019-02-02T17:57:26.937Z,13.72
2019-02-02T17:58:39.756Z,12.93
2019-02-02T17:59:54.031Z,15.48
2019-02-02T18:01:04.057Z,28.62
2019-02-02T18:02:21.942Z,15.80
2019-02-02T18:05:22.965Z,35.28
2019-02-02T18:09:26.038Z,12.55
2019-02-02T18:14:00.236Z,15.20
2019-02-02T18:15:14.875Z,18.25
2019-02-02T18:17:08.203Z,13.08
2019-02-02T18:18:19.646Z,12.88
2019-02-02T18:19:30.018Z,12.68
2019-02-02T18:21:00.758Z,11.73
2019-02-02T18:22:09.455Z,12.63
2019-02-02T18:23:18.253Z,12.85
2019-02-02T18:24:26.591Z,12.07
2019-02-02T18:25:43.675Z,12.75
2019-02-02T18:26:56.026Z,13.45
2019-02-02T18:28:17.458Z,12.58
2019-02-02T18:29:32.108Z,13.60
2019-02-02T18:31:13.217Z,13.38
2019-02-02T18:32:20.494Z,14.30